Time;durP1;ratioP1;P1;durP2;ratioP2;P2;SDS_P1;SDS_P2;PMS_P1;PMS_P2;Temp;Humidity;BMP_temperature;BMP_pressure;BME280_temperature;BME280_humidity;BME280_pressure;Samples;Min_cycle;Max_cycle;Signal;HPM_P1;HPM_P2
2023/05/10 00:00:00;;;;;;;1.40;1.30;;;;;;;23.19;44.64;100772.13;5124879;27;20039;-69
2023/05/10 00:02:26;;;;;;;1.92;1.40;;;;;;;23.19;44.78;100771.31;5120942;27;20132;-69
2023/05/10 00:04:52;;;;;;;2.15;1.40;;;;;;;23.16;44.58;100766.38;5120676;27;20039;-69
2023/05/10 00:07:17;;;;;;;1.50;1.40;;;;;;;23.16;44.48;100769.88;5120134;27;20043;-68
2023/05/10 00:09:43;;;;;;;1.30;1.20;;;;;;;23.14;44.45;100761.28;5118874;27;20052;-69
2023/05/10 00:12:09;;;;;;;1.55;1.45;;;;;;;23.11;44.48;100759.03;5122138;27;20057;-69
2023/05/10 00:14:35;;;;;;;1.95;1.40;;;;;;;23.09;44.87;100757.59;5121737;27;20138;-68
2023/05/10 00:17:00;;;;;;;1.23;1.13;;;;;;;23.10;44.79;100754.72;5121307;27;20043;-69
2023/05/10 00:19:26;;;;;;;0.80;0.80;;;;;;;23.13;44.70;100756.16;5121403;27;20038;-68
2023/05/10 00:21:51;;;;;;;1.40;1.30;;;;;;;23.12;44.76;100755.34;5123898;27;20038;-69
2023/05/10 00:24:17;;;;;;;1.67;1.30;;;;;;;23.10;44.70;100751.25;5116641;27;20039;-69
2023/05/10 00:26:42;;;;;;;1.40;1.30;;;;;;;23.04;44.62;100752.09;5118651;28;20034;-68
2023/05/10 00:29:08;;;;;;;1.10;1.10;;;;;;;23.04;44.62;100744.13;5117837;27;20069;-68
2023/05/10 00:31:34;;;;;;;1.30;1.20;;;;;;;23.05;44.63;100743.91;5118101;27;20099;-69
2023/05/10 00:33:59;;;;;;;0.93;0.93;;;;;;;23.00;44.78;100743.72;5121939;28;20074;-68
2023/05/10 00:36:25;;;;;;;1.40;1.30;;;;;;;23.00;44.76;100738.41;5115285;28;20107;-68
2023/05/10 00:38:51;;;;;;;1.40;1.30;;;;;;;22.98;44.88;100740.44;5111861;28;20059;-68
2023/05/10 00:41:17;;;;;;;1.20;1.10;;;;;;;22.99;44.65;100736.78;5121277;28;20058;-68
2023/05/10 00:43:43;;;;;;;0.90;0.90;;;;;;;23.00;44.70;100732.28;5117549;28;20035;-69
2023/05/10 00:46:09;;;;;;;1.75;1.45;;;;;;;22.97;44.76;100733.47;5113969;28;20043;-68
2023/05/10 00:48:35;;;;;;;0.85;0.85;;;;;;;22.98;44.65;100736.94;5118437;27;20031;-69
2023/05/10 00:51:02;;;;;;;1.38;1.27;;;;;;;23.02;44.58;100733.69;5115104;28;20035;-68
2023/05/10 00:53:27;;;;;;;1.25;1.17;;;;;;;22.92;44.77;100731.44;5121180;27;20106;-68
2023/05/10 00:55:53;;;;;;;1.05;1.05;;;;;;;22.92;44.56;100730.63;5121002;28;20458;-69
2023/05/10 00:58:18;;;;;;;1.33;1.23;;;;;;;22.90;44.63;100735.31;5117481;27;20532;-69
2023/05/10 01:00:46;;;;;;;1.40;1.30;;;;;;;22.96;44.87;100737.16;5120544;28;20031;-69
2023/05/10 01:03:11;;;;;;;1.25;0.90;;;;;;;22.87;44.95;100731.22;5120607;28;20034;-69
2023/05/10 01:05:37;;;;;;;1.40;1.27;;;;;;;22.91;44.56;100740.41;5120689;27;20024;-69
2023/05/10 01:08:03;;;;;;;0.95;0.95;;;;;;;22.86;44.85;100729.59;5114732;28;20043;-69
2023/05/10 01:10:30;;;;;;;1.02;0.93;;;;;;;22.81;44.98;100726.69;5120766;28;20170;-69
2023/05/10 01:12:56;;;;;;;1.45;1.10;;;;;;;22.84;44.59;100734.28;5120317;27;20055;-69
2023/05/10 01:15:22;;;;;;;1.15;1.15;;;;;;;22.82;44.90;100731.03;5123497;28;20503;-69
2023/05/10 01:17:48;;;;;;;1.00;1.00;;;;;;;22.83;44.87;100731.84;5113217;28;20039;-69
2023/05/10 01:20:15;;;;;;;1.45;0.90;;;;;;;22.82;44.80;100731.03;5117464;27;20035;-69
2023/05/10 01:22:54;;;;;;;1.30;1.17;;;;;;;22.78;44.68;100740.34;5129992;27;20039;-69
2023/05/10 01:25:44;;;;;;;1.35;1.25;;;;;;;22.77;44.69;100738.72;5122227;27;20058;-69
2023/05/10 01:28:37;;;;;;;1.38;1.00;;;;;;;22.75;44.78;100735.44;5120673;27;20033;-68
2023/05/10 01:31:42;;;;;;;0.95;0.93;;;;;;;22.77;44.88;100743.22;5122992;27;20050;-69
2023/05/10 01:34:18;;;;;;;1.08;1.05;;;;;;;22.78;44.73;100735.03;5086368;27;20047;-69
2023/05/10 01:36:51;;;;;;;1.10;0.93;;;;;;;22.72;44.95;100735.03;5124297;27;20077;-68
2023/05/10 01:39:24;;;;;;;0.90;0.90;;;;;;;22.74;45.03;100738.31;5123945;27;20039;-69
2023/05/10 01:42:26;;;;;;;1.00;1.00;;;;;;;22.76;44.97;100738.91;5127010;27;20471;-69
2023/05/10 01:44:59;;;;;;;0.98;0.98;;;;;;;22.70;44.85;100739.72;5120366;27;20033;-69
2023/05/10 01:47:38;;;;;;;1.15;1.00;;;;;;;22.69;44.99;100733.59;5119119;27;20490;-69
2023/05/10 01:50:10;;;;;;;0.82;0.82;;;;;;;22.68;44.78;100736.47;5130443;27;20031;-69
2023/05/10 01:52:43;;;;;;;1.15;1.05;;;;;;;22.63;44.85;100730.94;5126400;27;20042;-69
2023/05/10 01:55:14;;;;;;;1.23;1.13;;;;;;;22.65;44.85;100734.22;5125201;27;20126;-69
2023/05/10 01:57:43;;;;;;;1.05;1.00;;;;;;;22.70;44.82;100737.91;5124893;27;20034;-68
2023/05/10 02:00:10;;;;;;;1.23;1.13;;;;;;;22.65;45.06;100734.22;5128310;27;20085;-69
2023/05/10 02:02:47;;;;;;;1.08;0.98;;;;;;;22.60;44.84;100724.19;5125118;27;20480;-69
2023/05/10 02:05:15;;;;;;;0.93;0.90;;;;;;;22.66;44.79;100733.19;5120428;27;20047;-69
2023/05/10 02:07:41;;;;;;;1.08;1.05;;;;;;;22.64;44.88;100733.41;5125382;27;20149;-69
2023/05/10 02:10:09;;;;;;;0.90;0.90;;;;;;;22.63;44.94;100733.59;5119725;27;20035;-69
2023/05/10 02:12:42;;;;;;;0.70;0.70;;;;;;;22.55;44.73;100723.97;5119448;27;20070;-69
2023/05/10 02:15:10;;;;;;;0.73;0.73;;;;;;;22.60;45.05;100734.78;5123337;27;20038;-69
2023/05/10 02:17:37;;;;;;;1.00;1.00;;;;;;;22.63;44.78;100737.06;5119927;27;20036;-69
2023/05/10 02:20:06;;;;;;;1.02;1.02;;;;;;;22.59;45.00;100739.28;5120314;27;20066;-68
2023/05/10 02:22:32;;;;;;;0.85;0.85;;;;;;;22.63;44.63;100741.56;5119160;27;20038;-69
2023/05/10 02:25:00;;;;;;;0.90;0.90;;;;;;;22.57;44.89;100733.38;5122428;27;20101;-68
2023/05/10 02:27:29;;;;;;;0.63;0.63;;;;;;;22.63;44.93;100741.56;5119565;27;20035;-69
2023/05/10 02:29:55;;;;;;;0.88;0.88;;;;;;;22.60;44.94;100750.72;5118147;27;20093;-69
2023/05/10 02:32:24;;;;;;;0.93;0.90;;;;;;;22.58;45.05;100747.44;5122600;27;20038;-68
2023/05/10 02:34:51;;;;;;;1.00;1.00;;;;;;;22.55;44.77;100740.72;5121544;27;20035;-69
2023/05/10 02:37:19;;;;;;;0.75;0.75;;;;;;;22.59;44.61;100749.91;5121793;27;20043;-68
2023/05/10 02:39:50;;;;;;;0.88;0.88;;;;;;;22.54;44.81;100740.91;5124373;27;20388;-69
2023/05/10 02:42:18;;;;;;;1.00;1.00;;;;;;;22.55;45.08;100745.19;5124458;27;20047;-69
2023/05/10 02:44:48;;;;;;;1.23;0.90;;;;;;;22.57;44.98;100745.81;5124881;27;20042;-69
2023/05/10 02:47:14;;;;;;;0.90;0.90;;;;;;;22.51;44.81;100736.00;5123719;27;20037;-68
2023/05/10 02:49:40;;;;;;;1.45;1.00;;;;;;;22.54;44.94;100728.47;5122930;27;20039;-68
2023/05/10 02:52:08;;;;;;;0.63;0.63;;;;;;;22.52;45.18;100737.63;5118568;27;20064;-69
2023/05/10 02:54:43;;;;;;;0.93;0.93;;;;;;;22.48;44.79;100729.28;5120928;27;20811;-69
2023/05/10 02:57:13;;;;;;;1.08;0.85;;;;;;;22.56;44.77;100731.72;5125044;27;20046;-68
2023/05/10 02:59:38;;;;;;;0.98;0.98;;;;;;;22.53;44.65;100737.44;5118051;27;20035;-68
2023/05/10 03:02:05;;;;;;;1.00;0.90;;;;;;;22.51;44.88;100739.47;5119505;27;20031;-69
2023/05/10 03:04:30;;;;;;;0.85;0.85;;;;;;;22.49;44.89;100733.56;5122235;27;20540;-68
2023/05/10 03:06:58;;;;;;;0.90;0.90;;;;;;;22.48;44.99;100739.06;5118016;27;20468;-69
2023/05/10 03:09:24;;;;;;;1.60;0.85;;;;;;;22.48;44.89;100741.72;5116650;27;20062;-68
2023/05/10 03:12:00;;;;;;;0.95;0.95;;;;;;;22.49;44.76;100738.88;5116542;27;20058;-68
2023/05/10 03:14:57;;;;;;;0.70;0.70;;;;;;;22.48;44.83;100741.72;5113930;27;20039;-68
2023/05/10 03:17:36;;;;;;;1.27;1.17;;;;;;;22.48;44.62;100739.88;5117832;27;20032;-69
2023/05/10 03:20:16;;;;;;;0.63;0.63;;;;;;;22.52;44.88;100741.13;5117282;27;20020;-69
2023/05/10 03:22:46;;;;;;;0.75;0.75;;;;;;;22.48;44.63;100744.38;5123161;27;20032;-69
2023/05/10 03:25:16;;;;;;;0.90;0.90;;;;;;;22.44;44.94;100737.81;5123785;27;20027;-68
2023/05/10 03:27:43;;;;;;;0.82;0.82;;;;;;;22.45;44.60;100745.59;5115667;27;20528;-69
2023/05/10 03:30:13;;;;;;;0.75;0.75;;;;;;;22.36;44.88;100730.84;5118948;27;20039;-69
2023/05/10 03:32:39;;;;;;;1.00;0.93;;;;;;;22.45;45.00;100748.25;5123028;27;20049;-69
2023/05/10 03:35:08;;;;;;;0.90;0.90;;;;;;;22.44;45.04;100751.06;5121285;27;20043;-69
2023/05/10 03:37:35;;;;;;;0.70;0.70;;;;;;;22.43;44.99;100749.44;5122813;27;20104;-69
2023/05/10 03:40:01;;;;;;;0.75;0.75;;;;;;;22.43;44.94;100744.94;5121918;27;20076;-69
2023/05/10 03:42:29;;;;;;;0.70;0.70;;;;;;;22.43;45.05;100744.13;5117058;27;20461;-69
2023/05/10 03:44:55;;;;;;;0.63;0.63;;;;;;;22.40;45.03;100744.53;5127602;27;20019;-69
2023/05/10 03:47:20;;;;;;;0.82;0.82;;;;;;;22.40;44.67;100750.66;5117469;27;20141;-69
2023/05/10 03:49:46;;;;;;;1.13;1.02;;;;;;;22.43;44.95;100749.44;5122651;27;20027;-68
2023/05/10 03:52:11;;;;;;;0.73;0.73;;;;;;;22.40;44.94;100752.50;5120387;27;20043;-69
2023/05/10 03:54:37;;;;;;;0.82;0.82;;;;;;;22.38;44.71;100751.88;5118096;27;20035;-69
2023/05/10 03:57:03;;;;;;;0.63;0.63;;;;;;;22.38;44.64;100749.22;5120787;27;20039;-68
2023/05/10 03:59:29;;;;;;;1.13;0.98;;;;;;;22.39;44.63;100750.84;5121102;27;20072;-68
2023/05/10 04:01:56;;;;;;;1.25;0.90;;;;;;;22.37;44.84;100748.41;5124284;27;20035;-69
2023/05/10 04:04:22;;;;;;;1.25;1.00;;;;;;;22.39;44.59;100745.53;5115300;27;20103;-68
2023/05/10 04:06:49;;;;;;;0.88;0.88;;;;;;;22.38;44.80;100746.56;5117723;27;20091;-69
2023/05/10 04:09:16;;;;;;;1.55;0.98;;;;;;;22.37;44.92;100747.59;5117219;27;20121;-68
2023/05/10 04:11:41;;;;;;;1.20;1.00;;;;;;;22.38;44.59;100749.22;5122567;27;20050;-68
2023/05/10 04:14:07;;;;;;;1.10;1.00;;;;;;;22.35;44.62;100746.97;5119754;27;20043;-68
2023/05/10 04:16:32;;;;;;;0.80;0.70;;;;;;;22.34;44.32;100745.34;5120879;27;20031;-68
2023/05/10 04:18:58;;;;;;;1.42;1.10;;;;;;;22.31;45.02;100747.38;5119465;27;20117;-68
2023/05/10 04:21:23;;;;;;;0.80;0.80;;;;;;;22.35;44.63;100739.81;5118442;27;20042;-69
2023/05/10 04:23:49;;;;;;;0.75;0.70;;;;;;;22.34;44.81;100740.84;5118775;27;20043;-69
2023/05/10 04:26:14;;;;;;;1.48;0.90;;;;;;;22.35;44.51;100737.19;5123985;27;20031;-68
2023/05/10 04:28:40;;;;;;;0.77;0.77;;;;;;;22.30;45.07;100743.09;5116335;27;20042;-68
2023/05/10 04:31:08;;;;;;;0.85;0.85;;;;;;;22.31;44.90;100752.69;5120167;27;20046;-68
2023/05/10 04:33:34;;;;;;;1.05;0.70;;;;;;;22.35;44.93;100752.28;5121722;28;20047;-69
2023/05/10 04:36:00;;;;;;;1.10;1.00;;;;;;;22.35;44.86;100746.97;5118344;28;20511;-70
2023/05/10 04:38:26;;;;;;;0.82;0.82;;;;;;;22.34;44.59;100754.09;5121264;28;20907;-70
2023/05/10 04:40:52;;;;;;;0.63;0.63;;;;;;;22.31;44.67;100752.69;5121109;28;20604;-69
2023/05/10 04:43:18;;;;;;;1.08;0.98;;;;;;;22.30;44.73;100753.69;5119990;27;20046;-69
2023/05/10 04:45:44;;;;;;;1.08;0.80;;;;;;;22.33;44.53;100754.31;5117543;28;20027;-70
2023/05/10 04:48:09;;;;;;;0.70;0.70;;;;;;;22.33;44.61;100760.44;5118627;28;20065;-69
2023/05/10 04:50:35;;;;;;;1.77;0.90;;;;;;;22.25;44.83;100747.31;5126807;28;20039;-70
2023/05/10 04:53:00;;;;;;;0.80;0.80;;;;;;;22.33;44.79;100762.28;5118625;28;20127;-69
2023/05/10 04:55:26;;;;;;;1.42;0.95;;;;;;;22.34;44.66;100766.56;5124423;27;20050;-69
2023/05/10 04:57:55;;;;;;;0.60;0.60;;;;;;;22.25;44.66;100761.41;5121751;27;20722;-69
2023/05/10 05:00:20;;;;;;;0.75;0.75;;;;;;;22.29;44.63;100769.81;5125120;27;20035;-70
2023/05/10 05:02:46;;;;;;;1.10;0.80;;;;;;;22.28;44.54;100770.81;5125371;27;20043;-69
2023/05/10 05:05:12;;;;;;;0.85;0.80;;;;;;;22.28;44.61;100773.47;5122250;27;20178;-69
2023/05/10 05:07:38;;;;;;;0.57;0.57;;;;;;;22.29;44.82;100780.41;5121055;27;20038;-69
2023/05/10 05:10:05;;;;;;;0.40;0.40;;;;;;;22.25;44.85;100790.59;5125335;27;20045;-70
2023/05/10 05:12:31;;;;;;;0.73;0.73;;;;;;;22.27;44.54;100785.09;5124903;27;20039;-69
2023/05/10 05:14:57;;;;;;;0.75;0.75;;;;;;;22.24;44.75;100781.00;5123237;27;20039;-69
2023/05/10 05:17:22;;;;;;;0.80;0.80;;;;;;;22.25;44.60;100785.28;5122784;27;20298;-70
2023/05/10 05:19:48;;;;;;;0.40;0.40;;;;;;;22.14;44.88;100769.94;5124856;27;20528;-69
2023/05/10 05:22:13;;;;;;;0.63;0.60;;;;;;;22.20;44.36;100779.75;5123929;27;20480;-70
2023/05/10 05:24:39;;;;;;;1.05;0.82;;;;;;;22.25;44.73;100789.75;5129159;27;20051;-69
2023/05/10 05:27:05;;;;;;;0.73;0.68;;;;;;;22.25;44.90;100789.75;5124867;27;20484;-70
2023/05/10 05:29:31;;;;;;;0.73;0.55;;;;;;;22.22;44.61;100779.56;5123124;27;20095;-70
2023/05/10 05:31:56;;;;;;;0.70;0.70;;;;;;;22.24;44.96;100786.28;5121232;27;20710;-70
2023/05/10 05:34:22;;;;;;;0.93;0.85;;;;;;;22.24;44.62;100796.09;5122974;27;20048;-69
2023/05/10 05:36:48;;;;;;;0.70;0.70;;;;;;;22.24;44.98;100793.44;5121319;27;20043;-70
2023/05/10 05:39:13;;;;;;;0.70;0.70;;;;;;;22.22;44.70;100796.28;5122145;27;20042;-70
2023/05/10 05:41:39;;;;;;;0.52;0.52;;;;;;;22.22;44.87;100798.94;5122049;27;20076;-70
2023/05/10 05:44:04;;;;;;;0.55;0.55;;;;;;;22.23;44.69;100808.53;5119201;27;20043;-70
2023/05/10 05:46:30;;;;;;;0.55;0.55;;;;;;;22.21;44.65;100804.44;5122452;27;20039;-70
2023/05/10 05:48:56;;;;;;;0.60;0.60;;;;;;;22.20;44.95;100811.56;5124294;27;20031;-69
2023/05/10 05:51:21;;;;;;;0.43;0.43;;;;;;;22.22;44.74;100814.84;5127457;27;20039;-70
2023/05/10 05:53:47;;;;;;;0.60;0.60;;;;;;;22.21;44.54;100821.16;5129020;27;20040;-70
2023/05/10 05:56:12;;;;;;;0.70;0.70;;;;;;;22.18;44.88;100815.44;5123069;27;20023;-70
2023/05/10 05:58:38;;;;;;;0.60;0.60;;;;;;;22.20;44.69;100816.06;5125380;27;20047;-70
2023/05/10 06:01:03;;;;;;;0.88;0.60;;;;;;;22.22;44.61;100814.84;5126800;27;20047;-70
2023/05/10 06:03:29;;;;;;;0.38;0.38;;;;;;;22.19;44.75;100820.56;5123545;27;20039;-70
2023/05/10 06:05:54;;;;;;;0.45;0.45;;;;;;;22.21;44.72;100823.00;5123922;27;20418;-70
2023/05/10 06:08:20;;;;;;;0.50;0.50;;;;;;;22.16;44.73;100828.91;5127289;27;20496;-71
2023/05/10 06:10:45;;;;;;;0.55;0.55;;;;;;;22.15;44.46;100829.91;5122372;27;20084;-70
2023/05/10 06:13:11;;;;;;;0.40;0.28;;;;;;;22.19;44.68;100831.16;5123165;27;20068;-70
2023/05/10 06:15:37;;;;;;;1.25;0.50;;;;;;;22.20;44.86;100838.09;5123322;27;20078;-69
2023/05/10 06:18:03;;;;;;;0.73;0.47;;;;;;;22.19;44.76;100835.66;5126750;27;20046;-70
2023/05/10 06:20:28;;;;;;;0.50;0.50;;;;;;;22.18;44.82;100829.53;5126476;27;20035;-70
2023/05/10 06:22:54;;;;;;;0.50;0.50;;;;;;;22.18;44.61;100834.81;5118499;27;20035;-70
2023/05/10 06:25:19;;;;;;;0.55;0.40;;;;;;;22.16;44.56;100839.50;5124492;27;20024;-70
2023/05/10 06:27:45;;;;;;;1.65;0.40;;;;;;;22.06;44.86;100824.94;5123006;27;20394;-70
2023/05/10 06:30:13;;;;;;;0.30;0.30;;;;;;;22.14;44.55;100848.69;5122190;27;20035;-70
2023/05/10 06:32:38;;;;;;;0.38;0.38;;;;;;;22.16;44.61;100851.97;5124475;27;20043;-70
2023/05/10 06:35:04;;;;;;;0.40;0.40;;;;;;;22.10;45.10;100860.69;5123252;27;20052;-75
2023/05/10 06:37:30;;;;;;;0.40;0.40;;;;;;;22.14;44.95;100864.59;5125090;27;20140;-75
2023/05/10 06:39:55;;;;;;;3.38;0.68;;;;;;;22.17;44.93;100859.72;5127895;27;20035;-75
2023/05/10 06:42:21;;;;;;;0.60;0.60;;;;;;;22.18;44.92;100857.88;5127752;27;20100;-75
2023/05/10 06:44:46;;;;;;;2.38;0.73;;;;;;;22.16;44.60;100863.38;5121313;27;20039;-72
2023/05/10 06:47:12;;;;;;;0.30;0.30;;;;;;;22.05;44.98;100855.13;5125261;27;20049;-72
2023/05/10 06:49:38;;;;;;;0.60;0.60;;;;;;;22.15;44.95;100868.88;5126629;27;20058;-72
2023/05/10 06:52:03;;;;;;;0.75;0.55;;;;;;;22.11;44.60;100859.69;5130913;27;20027;-73
2023/05/10 06:54:29;;;;;;;0.43;0.32;;;;;;;22.12;44.79;100882.53;5127944;27;20496;-73
2023/05/10 06:56:55;;;;;;;0.40;0.40;;;;;;;22.09;44.72;100875.78;5127791;27;20046;-72
2023/05/10 06:59:21;;;;;;;0.40;0.40;;;;;;;22.07;44.56;100869.84;5126851;27;20105;-73
2023/05/10 07:01:47;;;;;;;0.30;0.30;;;;;;;22.18;44.82;100873.78;5125496;27;20385;-73
2023/05/10 07:04:13;;;;;;;0.30;0.30;;;;;;;22.16;44.74;100881.13;5126188;27;20131;-72
2023/05/10 07:06:38;;;;;;;0.55;0.40;;;;;;;22.27;44.37;100883.25;5119981;27;20038;-71
2023/05/10 07:09:04;;;;;;;0.50;0.43;;;;;;;22.25;44.28;100886.06;5125450;27;20159;-71
2023/05/10 07:11:29;;;;;;;0.88;0.65;;;;;;;22.27;44.42;100884.06;5123952;27;20484;-71
2023/05/10 07:13:55;;;;;;;0.38;0.38;;;;;;;22.24;44.33;100887.09;5124509;27;20038;-71
2023/05/10 07:16:21;;;;;;;0.28;0.28;;;;;;;22.24;44.62;100891.56;5126566;27;20747;-72
2023/05/10 07:18:46;;;;;;;0.30;0.30;;;;;;;22.22;44.72;100896.25;5127971;27;20359;-73
2023/05/10 07:21:12;;;;;;;0.38;0.35;;;;;;;22.22;44.41;100901.56;5125364;27;20046;-72
2023/05/10 07:23:37;;;;;;;0.50;0.50;;;;;;;22.20;44.61;100903.59;5125866;27;20084;-73
2023/05/10 07:26:03;;;;;;;0.35;0.25;;;;;;;22.19;44.39;100909.91;5125448;27;20136;-73
2023/05/10 07:28:29;;;;;;;0.50;0.40;;;;;;;22.15;44.80;100909.47;5123827;27;20039;-73
2023/05/10 07:30:54;;;;;;;0.77;0.40;;;;;;;22.17;44.47;100910.09;5123746;27;20383;-73
2023/05/10 07:33:20;;;;;;;0.30;0.30;;;;;;;22.14;44.54;100910.50;5126774;27;20028;-72
2023/05/10 07:35:45;;;;;;;0.93;0.40;;;;;;;22.14;44.60;100907.84;5121509;27;20062;-72
2023/05/10 07:38:11;;;;;;;0.40;0.40;;;;;;;22.13;44.60;100910.69;5123656;27;20032;-74
2023/05/10 07:40:37;;;;;;;0.50;0.43;;;;;;;22.08;44.72;100903.28;5129999;27;20027;-74
2023/05/10 07:43:03;;;;;;;0.30;0.30;;;;;;;22.13;44.70;100906.22;5131353;27;20028;-74
2023/05/10 07:45:28;;;;;;;0.77;0.40;;;;;;;22.11;44.69;100918.84;5129563;27;20042;-72
2023/05/10 07:47:54;;;;;;;0.30;0.30;;;;;;;22.10;44.67;100919.84;5116945;27;20043;-72
2023/05/10 07:50:20;;;;;;;0.47;0.47;;;;;;;22.10;44.67;100916.38;5122834;27;20039;-72
2023/05/10 07:52:47;;;;;;;0.32;0.30;;;;;;;22.08;45.00;100921.84;5125693;27;20988;-73
2023/05/10 07:55:13;;;;;;;0.60;0.60;;;;;;;22.01;44.90;100915.66;5121843;27;20058;-74
2023/05/10 07:57:39;;;;;;;1.25;0.45;;;;;;;21.99;44.89;100915.84;5123764;27;20040;-72
2023/05/10 08:00:05;;;;;;;0.40;0.40;;;;;;;22.06;45.07;100926.53;5121882;27;20043;-73
2023/05/10 08:02:38;;;;;;;0.20;0.20;;;;;;;22.05;44.62;100934.69;5122176;27;20397;-72
2023/05/10 08:05:05;;;;;;;2.83;0.47;;;;;;;22.03;44.99;100934.84;5124830;27;20077;-73
2023/05/10 08:07:30;;;;;;;1.15;0.57;;;;;;;22.00;45.14;100940.53;5123432;27;20059;-73
2023/05/10 08:09:56;;;;;;;0.43;0.43;;;;;;;22.05;45.04;100945.28;5128660;27;20035;-72
2023/05/10 08:12:21;;;;;;;0.55;0.45;;;;;;;22.02;45.04;100957.06;5124260;27;20039;-72
2023/05/10 08:14:47;;;;;;;0.40;0.40;;;;;;;22.05;44.64;100953.25;5126337;27;20036;-72
2023/05/10 08:17:12;;;;;;;0.32;0.32;;;;;;;22.05;44.56;100953.25;5130389;27;20044;-72
2023/05/10 08:19:38;;;;;;;0.20;0.20;;;;;;;21.99;45.02;100945.03;5123295;27;20030;-72
2023/05/10 08:22:04;;;;;;;1.17;0.40;;;;;;;22.03;44.81;100948.09;5125496;27;20608;-72
2023/05/10 08:24:29;;;;;;;0.30;0.30;;;;;;;22.03;45.01;100951.56;5122894;27;20027;-73
2023/05/10 08:26:54;;;;;;;0.57;0.47;;;;;;;21.95;44.78;100950.91;5121333;27;20056;-73
2023/05/10 08:29:20;;;;;;;0.40;0.40;;;;;;;22.01;44.75;100958.09;5128231;27;20258;-73
2023/05/10 08:31:45;;;;;;;0.50;0.50;;;;;;;22.01;45.06;100961.56;5126885;27;20035;-73
2023/05/10 08:34:11;;;;;;;0.60;0.30;;;;;;;21.98;44.63;100975.19;5121551;27;20048;-72
2023/05/10 08:36:37;;;;;;;0.65;0.47;;;;;;;21.97;45.03;100967.44;5131909;28;20048;-73
2023/05/10 08:39:02;;;;;;;0.43;0.30;;;;;;;22.02;44.98;100978.28;5124219;28;20042;-72
2023/05/10 08:41:29;;;;;;;0.17;0.17;;;;;;;21.97;44.85;100972.75;5125126;28;20035;-74
2023/05/10 08:43:55;;;;;;;0.35;0.35;;;;;;;21.96;44.81;100981.72;5125407;27;20946;-73
2023/05/10 08:46:22;;;;;;;0.32;0.32;;;;;;;21.99;44.71;100989.28;5124370;28;20046;-74
2023/05/10 08:48:50;;;;;;;0.60;0.60;;;;;;;22.00;45.07;100994.38;5122416;28;20034;-74
2023/05/10 08:51:19;;;;;;;0.40;0.40;;;;;;;21.98;44.72;100993.75;5126507;28;20034;-72
2023/05/10 08:53:46;;;;;;;0.30;0.30;;;;;;;22.01;44.96;101000.50;5122798;28;20034;-73
2023/05/10 08:56:12;;;;;;;0.30;0.30;;;;;;;21.99;44.63;100999.88;5122918;27;20431;-73
2023/05/10 08:58:38;;;;;;;0.57;0.40;;;;;;;22.01;44.89;100998.69;5124571;28;20049;-72
2023/05/10 09:01:05;;;;;;;0.55;0.32;;;;;;;22.00;44.88;101002.34;5130422;28;20035;-72
2023/05/10 09:03:31;;;;;;;0.43;0.40;;;;;;;22.01;44.88;101011.94;5128771;27;20043;-73
2023/05/10 09:05:56;;;;;;;0.30;0.30;;;;;;;21.93;44.62;101012.09;5124846;28;20092;-73
2023/05/10 09:08:26;;;;;;;1.75;0.30;;;;;;;21.98;44.83;101020.28;5128351;28;20032;-73
2023/05/10 09:10:53;;;;;;;0.88;0.57;;;;;;;21.89;45.00;100994.88;5123995;28;20528;-73
2023/05/10 09:13:21;;;;;;;0.40;0.40;;;;;;;21.95;44.79;101015.34;5125717;27;20028;-73
2023/05/10 09:15:48;;;;;;;0.28;0.28;;;;;;;22.01;44.94;101017.25;5125795;28;20044;-74
2023/05/10 09:18:13;;;;;;;0.30;0.30;;;;;;;22.02;44.59;101015.41;5122586;27;20069;-73
2023/05/10 09:20:39;;;;;;;0.40;0.30;;;;;;;22.03;44.60;101015.22;5123496;27;20063;-73
2023/05/10 09:23:05;;;;;;;0.20;0.20;;;;;;;21.97;44.83;101026.59;5125440;28;20040;-72
2023/05/10 09:25:33;;;;;;;0.45;0.40;;;;;;;22.00;44.67;101031.50;5127682;28;20035;-72
2023/05/10 09:27:58;;;;;;;0.40;0.40;;;;;;;21.98;45.00;101030.06;5124864;28;20027;-72
2023/05/10 09:30:26;;;;;;;0.63;0.45;;;;;;;22.01;44.71;101042.94;5126108;28;20096;-72
2023/05/10 09:32:53;;;;;;;1.05;0.40;;;;;;;21.95;44.92;101036.56;5121088;28;20127;-73
2023/05/10 09:35:23;;;;;;;0.45;0.45;;;;;;;21.96;44.69;101040.03;5125582;28;20047;-71
2023/05/10 09:37:53;;;;;;;0.47;0.47;;;;;;;21.94;44.82;101047.38;5119118;27;20151;-72
2023/05/10 09:40:21;;;;;;;0.30;0.30;;;;;;;21.95;44.64;101051.66;5122122;28;20500;-72
2023/05/10 09:42:54;;;;;;;0.75;0.40;;;;;;;21.99;44.88;101047.63;5124591;27;20110;-72
2023/05/10 09:45:21;;;;;;;0.80;0.40;;;;;;;21.96;44.62;101042.69;5127406;27;20031;-73
2023/05/10 09:47:46;;;;;;;1.20;1.02;;;;;;;22.01;44.87;101051.72;5125360;27;20034;-72
2023/05/10 09:50:12;;;;;;;2.10;0.52;;;;;;;21.99;44.89;101051.09;5127220;27;20023;-71
2023/05/10 09:52:58;;;;;;;0.32;0.32;;;;;;;21.94;45.03;101060.63;5125694;27;20067;-72
2023/05/10 09:55:25;;;;;;;0.52;0.52;;;;;;;21.96;44.63;101059.41;5126337;27;20062;-71
2023/05/10 09:58:01;;;;;;;0.50;0.50;;;;;;;21.97;44.81;101057.59;5126997;27;20027;-71
2023/05/10 10:00:28;;;;;;;0.38;0.38;;;;;;;22.00;44.60;101065.16;5124126;27;20039;-71
2023/05/10 10:02:58;;;;;;;2.17;0.60;;;;;;;21.97;44.61;101057.59;5123677;27;20092;-73
2023/05/10 10:05:31;;;;;;;0.75;0.70;;;;;;;21.93;44.94;101064.28;5121626;27;20042;-71
2023/05/10 10:08:00;;;;;;;1.48;0.50;;;;;;;21.99;44.94;101058.22;5125556;27;20068;-71
2023/05/10 10:10:26;;;;;;;0.50;0.50;;;;;;;21.98;44.84;101067.19;5120356;27;20051;-71
2023/05/10 10:12:52;;;;;;;0.57;0.55;;;;;;;21.95;44.66;101071.03;5128352;27;20027;-72
2023/05/10 10:15:18;;;;;;;0.60;0.60;;;;;;;21.94;44.68;101071.22;5128524;27;20485;-71
2023/05/10 10:17:45;;;;;;;1.23;0.75;;;;;;;21.95;44.78;101073.69;5127751;27;20027;-71
2023/05/10 10:20:11;;;;;;;1.00;0.60;;;;;;;21.97;44.76;101082.28;5122708;27;20039;-72
2023/05/10 10:22:37;;;;;;;1.38;1.27;;;;;;;21.94;44.88;101087.97;5124408;27;20056;-72
2023/05/10 10:25:03;;;;;;;2.78;0.80;;;;;;;21.97;45.01;101084.94;5124137;27;20035;-72
2023/05/10 10:27:46;;;;;;;0.60;0.40;;;;;;;21.97;45.06;101092.88;5123647;27;20134;-72
2023/05/10 10:30:21;;;;;;;0.63;0.63;;;;;;;22.01;44.95;101090.66;5127875;27;20046;-72
2023/05/10 10:32:46;;;;;;;0.88;0.52;;;;;;;22.00;44.48;101103.13;5125913;27;20067;-71
2023/05/10 10:35:12;;;;;;;0.77;0.70;;;;;;;21.93;44.60;101086.31;5121322;27;20043;-71
2023/05/10 10:37:44;;;;;;;1.13;0.93;;;;;;;21.93;44.96;101096.94;5123063;27;20064;-71
2023/05/10 10:40:30;;;;;;;2.78;0.90;;;;;;;21.99;44.77;101104.13;5131804;27;20126;-72
2023/05/10 10:42:57;;;;;;;0.52;0.52;;;;;;;21.94;44.95;101092.44;5126322;27;21836;-72
2023/05/10 10:45:24;;;;;;;0.93;0.90;;;;;;;21.85;45.02;101096.19;5126180;27;20106;-71
2023/05/10 10:48:13;;;;;;;1.75;0.82;;;;;;;21.97;44.56;101097.38;5121468;27;20042;-72
2023/05/10 10:50:46;;;;;;;0.68;0.60;;;;;;;21.92;44.86;101099.75;5123869;27;20039;-72
2023/05/10 10:53:12;;;;;;;0.60;0.60;;;;;;;21.91;45.05;101093.63;5125640;27;20474;-72
2023/05/10 10:55:46;;;;;;;3.15;1.00;;;;;;;21.98;44.91;101093.69;5127474;27;20044;-72
2023/05/10 10:58:30;;;;;;;2.08;0.73;;;;;;;21.92;45.08;101094.47;5127698;27;20689;-72
2023/05/10 11:01:17;;;;;;;1.10;1.00;;;;;;;21.98;44.97;101099.81;5129592;27;20507;-71
2023/05/10 11:04:19;;;;;;;0.63;0.63;;;;;;;21.99;44.63;101105.94;5129511;27;20038;-71
2023/05/10 11:06:44;;;;;;;1.10;1.10;;;;;;;21.99;45.42;101112.06;5088626;27;20449;-71
2023/05/10 11:09:12;;;;;;;0.80;0.80;;;;;;;21.98;44.99;101112.25;5130213;27;20031;-71
2023/05/10 11:11:54;;;;;;;0.77;0.77;;;;;;;21.95;44.80;101116.13;5123206;27;20058;-73
2023/05/10 11:14:24;;;;;;;1.30;0.55;;;;;;;22.00;45.05;101116.38;5126432;27;20043;-72
2023/05/10 11:16:50;;;;;;;1.25;0.88;;;;;;;22.09;44.39;101118.97;5126511;27;20137;-73
2023/05/10 11:19:17;;;;;;;0.82;0.82;;;;;;;22.20;44.50;101107.84;5126990;27;20047;-70
2023/05/10 11:22:13;;;;;;;1.10;1.00;;;;;;;21.96;44.18;101079.81;5128361;27;20034;-73
2023/05/10 11:24:38;;;;;;;0.77;0.60;;;;;;;22.30;43.99;101114.47;5125974;27;20048;-73
2023/05/10 11:27:05;;;;;;;0.85;0.85;;;;;;;22.33;43.74;101123.06;5121833;27;20042;-74